7TS0 weather

Fairview Airport
Rhome, Texas, United States

Public forecast

Using degrees Fahrenheit for public forecast. Weather courtesy of forecast.io.

METAR (pilot weather report)

Closest report is Fort Worth Alliance Airport, 8.4 nm (15.6 km) SE. Retrieved 2019/07/23 17:53 UTC (1 hour ago):

KAFW 231753Z 02013G19KT 360V060 10SM SCT060 31/14 A3015 RMK AO2 SLP196 T03060144 10306 20211 57007

TAF (pilot weather forecast)

Closest forecast is Fort Worth Alliance Airport, 8.4 nm (15.6 km) SE. Retrieved 2019/07/23 18:22 UTC (32 minutes ago):

TAF KAFW 231720Z 2318/2418 04012G18KT P6SM SCT050 SCT250 FM232300 04010KT P6SM FEW050 SCT250 FM240500 02005KT P6SM SCT250 FM241500 10007KT P6SM SCT250